createdAt,value
2017-12-16T00:01:24.101Z,2.70
2017-12-16T00:03:52.733Z,2.70
2017-12-16T00:06:21.430Z,2.70
2017-12-16T00:08:50.061Z,2.70
2017-12-16T00:11:18.662Z,2.70
2017-12-16T00:13:48.040Z,2.60
2017-12-16T00:16:16.642Z,2.60
2017-12-16T00:18:45.276Z,2.60
2017-12-16T00:21:13.910Z,2.60
2017-12-16T00:23:42.458Z,2.60
2017-12-16T00:26:11.085Z,2.60
2017-12-16T00:28:39.702Z,2.60
2017-12-16T00:31:08.250Z,2.60
2017-12-16T00:33:36.846Z,2.50
2017-12-16T00:36:05.412Z,2.50
2017-12-16T00:38:33.976Z,2.50
2017-12-16T00:41:02.557Z,2.40
2017-12-16T00:43:31.218Z,2.40
2017-12-16T00:45:59.928Z,2.50
2017-12-16T00:48:28.496Z,2.50
2017-12-16T00:50:57.256Z,2.40
2017-12-16T00:53:25.844Z,2.40
2017-12-16T00:55:54.432Z,2.40
2017-12-16T00:58:23.088Z,2.30
2017-12-16T01:00:51.685Z,2.30
2017-12-16T01:03:20.272Z,2.30
2017-12-16T01:05:48.890Z,2.20
2017-12-16T01:08:18.253Z,2.10
2017-12-16T01:10:46.853Z,2.10
2017-12-16T01:13:15.583Z,2.10
2017-12-16T01:15:44.192Z,2.00
2017-12-16T01:18:13.567Z,2.10
2017-12-16T01:20:42.164Z,2.00
2017-12-16T01:23:10.746Z,2.00
2017-12-16T01:25:39.341Z,2.00
2017-12-16T01:28:08.011Z,1.90
2017-12-16T01:30:36.644Z,1.90
2017-12-16T01:33:05.209Z,1.90
2017-12-16T01:35:44.901Z,1.90
2017-12-16T01:38:24.665Z,1.90
2017-12-16T01:40:53.502Z,2.10
2017-12-16T01:43:21.431Z,2.00
2017-12-16T01:45:50.038Z,2.10
2017-12-16T01:48:18.687Z,2.10
2017-12-16T01:50:47.274Z,2.20
2017-12-16T01:53:15.569Z,2.30
2017-12-16T01:55:44.204Z,2.30
2017-12-16T01:58:12.813Z,2.30
2017-12-16T02:00:40.807Z,2.30
2017-12-16T02:03:09.516Z,2.30
2017-12-16T02:05:38.254Z,2.30
2017-12-16T02:08:06.874Z,2.30
2017-12-16T02:10:35.500Z,2.40
2017-12-16T02:13:03.863Z,2.40
2017-12-16T02:15:32.134Z,2.40
2017-12-16T02:18:00.775Z,2.40
2017-12-16T02:20:28.750Z,2.30
2017-12-16T02:22:56.702Z,2.30
2017-12-16T02:25:24.684Z,2.30
2017-12-16T02:27:52.660Z,2.20
2017-12-16T02:30:20.627Z,2.20
2017-12-16T02:32:53.818Z,2.10
2017-12-16T02:35:21.808Z,2.10
2017-12-16T02:37:49.749Z,2.10
2017-12-16T02:40:17.730Z,2.00
2017-12-16T02:42:45.690Z,2.00
2017-12-16T02:45:13.645Z,2.00
2017-12-16T02:47:42.489Z,2.00
2017-12-16T02:50:10.454Z,2.00
2017-12-16T02:52:38.374Z,2.00
2017-12-16T02:55:07.236Z,2.00
2017-12-16T02:57:35.248Z,2.00
2017-12-16T03:00:03.165Z,2.00
2017-12-16T03:02:31.472Z,2.10
2017-12-16T03:04:59.388Z,2.10
2017-12-16T03:07:27.709Z,2.10
2017-12-16T03:09:55.706Z,2.10
2017-12-16T03:12:23.651Z,2.10
2017-12-16T03:14:51.681Z,2.10
2017-12-16T03:17:20.100Z,2.10
2017-12-16T03:19:48.087Z,2.10
2017-12-16T03:22:16.273Z,2.10
2017-12-16T03:24:45.076Z,2.10
2017-12-16T03:27:13.769Z,2.10
2017-12-16T03:29:42.485Z,2.10
2017-12-16T03:32:10.952Z,2.10
2017-12-16T03:34:38.912Z,2.10
2017-12-16T03:37:07.665Z,1.80
2017-12-16T03:39:35.690Z,1.80
2017-12-16T03:42:03.659Z,1.90
2017-12-16T03:44:31.613Z,1.80
2017-12-16T03:47:00.377Z,1.70
2017-12-16T03:49:28.333Z,1.70
2017-12-16T03:51:56.286Z,1.60
2017-12-16T03:54:24.366Z,1.60
2017-12-16T03:56:52.285Z,1.60
2017-12-16T03:59:21.632Z,1.70
2017-12-16T04:01:50.270Z,1.70
2017-12-16T04:04:18.232Z,1.80
2017-12-16T04:06:46.517Z,1.80
2017-12-16T04:09:14.866Z,1.80
2017-12-16T04:11:43.133Z,1.80
2017-12-16T04:14:11.457Z,1.80
2017-12-16T04:16:39.899Z,1.80
2017-12-16T04:19:07.871Z,1.80
2017-12-16T04:21:36.169Z,1.80
2017-12-16T04:24:04.279Z,1.80
2017-12-16T04:26:32.911Z,1.70
2017-12-16T04:29:00.863Z,1.70
2017-12-16T04:31:29.482Z,1.70
2017-12-16T04:33:58.016Z,1.80
2017-12-16T04:36:25.955Z,1.80
2017-12-16T04:38:53.971Z,1.80
2017-12-16T04:41:21.943Z,1.80
2017-12-16T04:43:51.315Z,1.90
2017-12-16T04:46:19.934Z,1.90
2017-12-16T04:48:48.235Z,1.90
2017-12-16T04:51:16.189Z,1.80
2017-12-16T04:53:44.526Z,1.80
2017-12-16T04:56:12.787Z,1.80
2017-12-16T04:58:40.719Z,1.80
2017-12-16T05:01:09.157Z,1.80
2017-12-16T05:03:37.126Z,1.80
2017-12-16T05:06:05.096Z,1.80
2017-12-16T05:08:33.529Z,1.70
2017-12-16T05:11:01.818Z,1.70
2017-12-16T05:13:29.775Z,1.70
2017-12-16T05:15:58.097Z,1.70
2017-12-16T05:18:26.049Z,1.80
2017-12-16T05:20:54.661Z,1.80
2017-12-16T05:23:23.019Z,1.80
2017-12-16T05:25:51.003Z,1.60
2017-12-16T05:28:19.290Z,1.60
2017-12-16T05:30:47.626Z,1.60
2017-12-16T05:33:15.549Z,1.60
2017-12-16T05:35:43.527Z,1.60
2017-12-16T05:38:11.628Z,1.50
2017-12-16T05:40:40.331Z,1.40
2017-12-16T05:43:08.657Z,1.40
2017-12-16T05:45:36.969Z,1.50
2017-12-16T05:48:06.032Z,1.50
2017-12-16T05:50:34.045Z,1.50
2017-12-16T05:53:07.479Z,1.50
2017-12-16T05:55:35.735Z,1.50
2017-12-16T05:58:05.358Z,1.50
2017-12-16T06:00:33.975Z,1.50
2017-12-16T06:03:01.939Z,1.50
2017-12-16T06:05:29.928Z,1.50
2017-12-16T06:07:58.237Z,1.60
2017-12-16T06:10:27.164Z,1.60
2017-12-16T06:12:55.545Z,1.70
2017-12-16T06:15:23.673Z,1.70
2017-12-16T06:17:51.629Z,1.60
2017-12-16T06:20:19.913Z,1.60
2017-12-16T06:22:47.954Z,1.60
2017-12-16T06:25:15.967Z,1.50
2017-12-16T06:27:44.052Z,1.50
2017-12-16T06:30:12.508Z,1.40
2017-12-16T06:32:40.800Z,1.30
2017-12-16T06:35:09.102Z,1.30
2017-12-16T06:37:37.941Z,1.10
2017-12-16T06:40:06.226Z,1.10
2017-12-16T06:42:34.840Z,1.10
2017-12-16T06:45:03.246Z,1.10
2017-12-16T06:47:31.948Z,1.10
2017-12-16T06:49:59.947Z,1.10
2017-12-16T06:52:28.280Z,1.10
2017-12-16T06:54:56.846Z,1.20
2017-12-16T06:57:25.111Z,1.10
2017-12-16T06:59:53.553Z,1.00
2017-12-16T07:02:21.511Z,1.00
2017-12-16T07:04:50.919Z,1.10
2017-12-16T07:07:18.947Z,1.00
2017-12-16T07:09:47.517Z,1.00
2017-12-16T07:12:16.031Z,1.00
2017-12-16T07:14:44.032Z,1.00
2017-12-16T07:17:12.154Z,1.00
2017-12-16T07:19:40.412Z,1.10
2017-12-16T07:22:09.054Z,1.00
2017-12-16T07:24:37.313Z,1.00
2017-12-16T07:27:05.621Z,1.10
2017-12-16T07:29:34.422Z,1.10
2017-12-16T07:32:03.167Z,1.20
2017-12-16T07:34:31.437Z,1.20
2017-12-16T07:37:00.036Z,1.10
2017-12-16T07:39:28.601Z,1.20
2017-12-16T07:41:57.164Z,1.20
2017-12-16T07:44:25.835Z,1.30
2017-12-16T07:46:55.190Z,1.30
2017-12-16T07:49:23.805Z,1.20
2017-12-16T07:51:52.388Z,1.30
2017-12-16T07:54:21.252Z,1.40
2017-12-16T07:56:49.847Z,1.30
2017-12-16T07:59:18.470Z,1.30
2017-12-16T08:01:47.534Z,1.30
2017-12-16T08:04:16.141Z,1.30
2017-12-16T08:06:44.816Z,1.40
2017-12-16T08:09:13.385Z,1.40
2017-12-16T08:11:41.960Z,1.40
2017-12-16T08:14:10.691Z,1.40
2017-12-16T08:16:39.250Z,1.50
2017-12-16T08:19:07.819Z,1.50
2017-12-16T08:21:36.426Z,1.50
2017-12-16T08:24:05.001Z,1.50
2017-12-16T08:26:33.572Z,1.60
2017-12-16T08:29:03.331Z,1.60
2017-12-16T08:31:31.916Z,1.60
2017-12-16T08:34:00.512Z,1.60
2017-12-16T08:36:29.114Z,1.60
2017-12-16T08:38:58.459Z,1.60
2017-12-16T08:41:27.025Z,1.60
2017-12-16T08:43:55.686Z,1.50
2017-12-16T08:46:24.985Z,1.50
2017-12-16T08:48:54.278Z,1.50
2017-12-16T08:51:22.934Z,1.50
2017-12-16T08:53:51.497Z,1.50
2017-12-16T08:56:20.053Z,1.60
2017-12-16T08:58:49.429Z,1.70
2017-12-16T09:01:17.389Z,1.70
2017-12-16T09:03:45.950Z,1.80
2017-12-16T09:06:14.574Z,1.80
2017-12-16T09:08:43.156Z,1.80
2017-12-16T09:11:11.730Z,1.80
2017-12-16T09:13:40.338Z,1.80
2017-12-16T09:16:09.544Z,1.80
2017-12-16T09:18:38.117Z,1.80
2017-12-16T09:21:06.799Z,1.80
2017-12-16T09:23:36.298Z,2.00
2017-12-16T09:26:04.876Z,2.00
2017-12-16T09:28:33.557Z,2.00
2017-12-16T09:31:02.089Z,2.10
2017-12-16T09:33:30.708Z,2.10
2017-12-16T09:35:59.411Z,2.20
2017-12-16T09:38:27.989Z,2.30
2017-12-16T09:40:58.198Z,2.40
2017-12-16T09:43:27.572Z,2.60
2017-12-16T09:45:56.130Z,2.60
2017-12-16T09:48:28.138Z,2.50
2017-12-16T09:50:57.610Z,2.50
2017-12-16T09:53:26.157Z,2.50
2017-12-16T09:55:54.766Z,2.60
2017-12-16T09:58:23.373Z,2.70
2017-12-16T10:00:51.938Z,2.90
2017-12-16T10:03:25.004Z,3.00
2017-12-16T10:05:53.262Z,3.10
2017-12-16T10:08:22.015Z,3.20
2017-12-16T10:10:50.664Z,3.20
2017-12-16T10:13:19.278Z,3.20
2017-12-16T10:15:47.873Z,3.20
2017-12-16T10:18:16.447Z,3.30
2017-12-16T10:20:45.063Z,3.40
2017-12-16T10:23:13.684Z,3.40
2017-12-16T10:25:44.433Z,3.40
2017-12-16T10:28:13.036Z,3.30
2017-12-16T10:30:45.002Z,3.30
2017-12-16T10:33:38.422Z,3.30
2017-12-16T10:36:07.142Z,3.30
2017-12-16T10:38:35.715Z,3.20
2017-12-16T10:41:05.014Z,3.10
2017-12-16T10:43:34.416Z,3.10
2017-12-16T10:46:03.776Z,3.10
2017-12-16T10:48:32.407Z,3.10
2017-12-16T10:51:01.495Z,3.00
2017-12-16T10:53:38.799Z,3.00
2017-12-16T10:56:07.453Z,3.00
2017-12-16T10:58:36.036Z,3.00
2017-12-16T11:01:04.642Z,3.00
2017-12-16T11:03:33.226Z,3.00
2017-12-16T11:06:01.799Z,3.00
2017-12-16T11:08:30.348Z,3.00
2017-12-16T11:11:16.303Z,3.00
2017-12-16T11:13:44.885Z,3.00
2017-12-16T11:16:13.472Z,3.00
2017-12-16T11:18:53.472Z,3.00
2017-12-16T11:24:22.814Z,3.00
2017-12-16T11:26:51.527Z,3.10
2017-12-16T11:29:20.108Z,3.10
2017-12-16T11:31:48.405Z,3.10
2017-12-16T11:34:21.188Z,3.20
2017-12-16T11:36:49.912Z,3.20
2017-12-16T11:39:20.073Z,3.30
2017-12-16T11:42:03.218Z,3.30
2017-12-16T11:44:40.007Z,3.30
2017-12-16T11:47:11.581Z,3.40
2017-12-16T11:49:45.615Z,3.50
2017-12-16T11:52:22.263Z,3.50
2017-12-16T11:54:56.177Z,3.60
2017-12-16T11:57:24.933Z,3.60
2017-12-16T11:59:53.466Z,3.60
2017-12-16T12:02:22.108Z,3.60
2017-12-16T12:04:50.879Z,3.60
2017-12-16T12:07:19.451Z,3.60
2017-12-16T12:09:48.008Z,3.60
2017-12-16T12:12:16.619Z,3.60
2017-12-16T12:14:45.226Z,3.70
2017-12-16T12:17:27.971Z,3.80
2017-12-16T12:19:56.748Z,3.90
2017-12-16T12:22:26.944Z,3.90
2017-12-16T12:24:56.301Z,3.90
2017-12-16T12:27:25.673Z,4.10
2017-12-16T12:29:54.234Z,4.10
2017-12-16T12:32:22.804Z,4.10
2017-12-16T12:34:51.434Z,4.20
2017-12-16T12:37:20.048Z,4.20
2017-12-16T12:39:48.607Z,4.10
2017-12-16T12:42:17.209Z,4.10
2017-12-16T12:44:45.820Z,4.10
2017-12-16T12:47:14.530Z,4.00
2017-12-16T12:49:43.183Z,4.00
2017-12-16T12:52:11.740Z,4.00
2017-12-16T12:54:40.331Z,3.90
2017-12-16T12:57:08.960Z,3.90
2017-12-16T12:59:38.312Z,3.80
2017-12-16T13:02:06.869Z,3.80
2017-12-16T13:04:35.592Z,3.90
2017-12-16T13:07:04.187Z,4.00
2017-12-16T13:09:35.332Z,4.10
2017-12-16T13:12:03.916Z,4.10
2017-12-16T13:14:32.518Z,4.20
2017-12-16T13:17:01.239Z,4.20
2017-12-16T13:19:30.561Z,4.10
2017-12-16T13:21:59.128Z,4.10
2017-12-16T13:24:27.817Z,4.20
2017-12-16T13:26:57.148Z,4.10
2017-12-16T13:29:25.696Z,4.10
2017-12-16T13:31:54.321Z,4.00
2017-12-16T13:34:22.902Z,4.00
2017-12-16T13:36:52.241Z,4.00
2017-12-16T13:39:20.886Z,4.00
2017-12-16T13:41:49.440Z,4.00
2017-12-16T13:44:18.176Z,3.90
2017-12-16T13:46:47.581Z,3.90
2017-12-16T13:49:16.235Z,3.90
2017-12-16T13:51:44.913Z,3.90
2017-12-16T13:54:13.501Z,4.00
2017-12-16T13:56:42.076Z,4.00
2017-12-16T13:59:10.616Z,4.00
2017-12-16T14:01:39.353Z,4.00
2017-12-16T14:04:08.707Z,4.00
2017-12-16T14:06:37.243Z,4.00
2017-12-16T14:09:05.278Z,4.00
2017-12-16T14:11:33.878Z,4.00
2017-12-16T14:14:02.439Z,3.90
2017-12-16T14:16:32.175Z,3.80
2017-12-16T14:19:00.757Z,3.80
2017-12-16T14:21:29.346Z,3.80
2017-12-16T14:23:57.984Z,3.80
2017-12-16T14:26:26.560Z,3.70
2017-12-16T14:28:55.874Z,3.70
2017-12-16T14:31:24.470Z,3.70
2017-12-16T14:33:53.030Z,3.70
2017-12-16T14:36:22.371Z,3.70
2017-12-16T14:38:51.035Z,3.70
2017-12-16T14:41:19.000Z,3.70
2017-12-16T14:43:48.377Z,3.70
2017-12-16T14:46:17.007Z,3.70
2017-12-16T14:48:45.584Z,3.70
2017-12-16T14:51:14.122Z,3.70
2017-12-16T14:53:42.728Z,3.70
2017-12-16T14:56:11.322Z,3.70
2017-12-16T14:58:40.672Z,3.60
2017-12-16T15:01:09.261Z,3.60
2017-12-16T15:03:38.586Z,3.40
2017-12-16T15:06:07.123Z,3.40
2017-12-16T15:08:35.742Z,3.30
2017-12-16T15:11:04.384Z,3.20
2017-12-16T15:13:33.716Z,3.30
2017-12-16T15:16:03.087Z,3.30
2017-12-16T15:18:32.434Z,3.30
2017-12-16T15:21:00.961Z,3.20
2017-12-16T15:23:30.410Z,3.30
2017-12-16T15:25:58.996Z,3.30
2017-12-16T15:28:27.563Z,3.30
2017-12-16T15:30:56.270Z,3.30
2017-12-16T15:33:24.818Z,3.30
2017-12-16T15:35:53.404Z,3.30
2017-12-16T15:38:22.908Z,3.30
2017-12-16T15:40:51.542Z,3.30
2017-12-16T15:43:20.140Z,3.30
2017-12-16T15:45:48.753Z,3.30
2017-12-16T15:48:17.297Z,3.30
2017-12-16T15:50:45.934Z,3.30
2017-12-16T15:53:14.543Z,3.30
2017-12-16T15:55:43.921Z,3.30
2017-12-16T15:58:12.510Z,3.20
2017-12-16T16:00:40.933Z,3.30
2017-12-16T16:03:09.551Z,3.20
2017-12-16T16:05:38.134Z,3.20
2017-12-16T16:08:06.560Z,3.20
2017-12-16T16:10:34.862Z,3.20
2017-12-16T16:13:03.147Z,3.20
2017-12-16T16:15:31.808Z,3.20
2017-12-16T16:18:00.404Z,3.20
2017-12-16T16:20:29.772Z,3.20
2017-12-16T16:22:58.399Z,3.10
2017-12-16T16:25:27.749Z,3.20
2017-12-16T16:27:56.389Z,3.20
2017-12-16T16:30:25.887Z,3.20
2017-12-16T16:32:54.502Z,3.20
2017-12-16T16:35:23.084Z,3.20
2017-12-16T16:37:51.726Z,3.20
2017-12-16T16:40:20.303Z,3.20
2017-12-16T16:42:48.974Z,3.20
2017-12-16T16:45:17.557Z,3.20
2017-12-16T16:47:46.167Z,3.10
2017-12-16T16:50:14.455Z,3.10
2017-12-16T16:52:43.131Z,3.00
2017-12-16T16:55:11.732Z,3.00
2017-12-16T16:57:40.280Z,2.90
2017-12-16T17:00:09.704Z,2.90
2017-12-16T17:02:38.283Z,2.90
2017-12-16T17:05:06.838Z,2.80
2017-12-16T17:07:35.458Z,2.80
2017-12-16T17:10:04.033Z,2.80
2017-12-16T17:12:32.663Z,2.80
2017-12-16T17:15:01.314Z,2.80
2017-12-16T17:17:29.762Z,2.80
2017-12-16T17:19:58.391Z,2.70
2017-12-16T17:22:27.217Z,2.70
2017-12-16T17:24:55.832Z,2.70
2017-12-16T17:27:24.454Z,2.60
2017-12-16T17:29:53.096Z,2.60
2017-12-16T17:32:21.701Z,2.70
2017-12-16T17:34:50.357Z,2.80
2017-12-16T17:37:18.847Z,2.70
2017-12-16T17:39:47.435Z,2.70
2017-12-16T17:42:16.420Z,2.60
2017-12-16T17:44:45.500Z,2.50
2017-12-16T17:47:14.108Z,2.50
2017-12-16T17:49:43.499Z,2.50
2017-12-16T17:52:12.125Z,2.40
2017-12-16T17:54:40.716Z,2.50
2017-12-16T17:57:09.288Z,2.50
2017-12-16T17:59:37.933Z,2.40
2017-12-16T18:02:06.520Z,2.40
2017-12-16T18:04:35.110Z,2.30
2017-12-16T18:07:03.446Z,2.40
2017-12-16T18:09:32.053Z,2.30
2017-12-16T18:12:00.634Z,2.40
2017-12-16T18:14:29.268Z,2.50
2017-12-16T18:16:57.854Z,2.50
2017-12-16T18:19:26.464Z,2.50
2017-12-16T18:21:55.130Z,2.50
2017-12-16T18:24:24.437Z,2.40
2017-12-16T18:26:53.799Z,2.40
2017-12-16T18:29:22.439Z,2.40
2017-12-16T18:31:51.789Z,2.40
2017-12-16T18:34:20.412Z,2.40
2017-12-16T18:36:49.044Z,2.40
2017-12-16T18:39:17.655Z,2.50
2017-12-16T18:41:46.261Z,2.50
2017-12-16T18:44:14.877Z,2.60
2017-12-16T18:46:44.214Z,2.70
2017-12-16T18:49:12.818Z,2.70
2017-12-16T18:51:41.486Z,2.80
2017-12-16T18:54:10.155Z,2.80
2017-12-16T18:56:38.136Z,2.80
2017-12-16T18:59:06.776Z,2.80
2017-12-16T19:01:35.390Z,2.80
2017-12-16T19:04:04.751Z,2.80
2017-12-16T19:06:33.384Z,2.80
2017-12-16T19:09:01.981Z,2.80
2017-12-16T19:11:30.555Z,2.80
2017-12-16T19:13:59.946Z,2.80
2017-12-16T19:16:29.320Z,2.80
2017-12-16T19:18:58.762Z,2.80
2017-12-16T19:21:28.141Z,2.80
2017-12-16T19:23:56.714Z,2.80
2017-12-16T19:26:25.141Z,2.80
2017-12-16T19:28:54.512Z,2.90
2017-12-16T19:31:23.120Z,2.80
2017-12-16T19:33:52.513Z,2.90
2017-12-16T19:36:21.127Z,2.80
2017-12-16T19:38:50.544Z,2.80
2017-12-16T19:41:19.131Z,2.80
2017-12-16T19:43:47.741Z,2.80
2017-12-16T19:46:16.320Z,2.80
2017-12-16T19:48:44.905Z,2.70
2017-12-16T19:51:13.578Z,2.60
2017-12-16T19:53:42.177Z,2.60
2017-12-16T19:56:10.724Z,2.60
2017-12-16T19:58:39.329Z,2.70
2017-12-16T20:01:07.909Z,2.60
2017-12-16T20:03:37.237Z,2.70
2017-12-16T20:06:05.844Z,2.70
2017-12-16T20:08:34.436Z,2.70
2017-12-16T20:11:03.010Z,2.70
2017-12-16T20:13:31.605Z,2.70
2017-12-16T20:16:00.215Z,2.70
2017-12-16T20:18:28.810Z,2.70
2017-12-16T20:20:57.420Z,2.70
2017-12-16T20:23:26.033Z,2.70
2017-12-16T20:25:55.371Z,2.70
2017-12-16T20:28:24.023Z,2.70
2017-12-16T20:30:52.644Z,2.70
2017-12-16T20:33:21.260Z,2.70
2017-12-16T20:35:50.774Z,2.70
2017-12-16T20:38:20.149Z,2.70
2017-12-16T20:40:48.746Z,2.70
2017-12-16T20:43:17.393Z,2.70
2017-12-16T20:45:45.653Z,2.70
2017-12-16T20:48:14.287Z,2.70
2017-12-16T20:50:42.924Z,2.70
2017-12-16T20:53:11.537Z,2.70
2017-12-16T20:55:40.878Z,2.70
2017-12-16T20:58:09.282Z,2.70
2017-12-16T21:00:37.905Z,2.80
2017-12-16T21:03:06.506Z,2.80
2017-12-16T21:05:35.124Z,2.80
2017-12-16T21:08:03.713Z,2.80
2017-12-16T21:10:33.048Z,2.80
2017-12-16T21:13:01.812Z,2.80
2017-12-16T21:15:30.396Z,2.90
2017-12-16T21:17:59.747Z,2.90
2017-12-16T21:20:28.371Z,2.80
2017-12-16T21:22:56.962Z,2.90
2017-12-16T21:25:25.534Z,2.90
2017-12-16T21:27:54.120Z,2.90
2017-12-16T21:30:22.705Z,2.90
2017-12-16T21:32:51.295Z,2.90
2017-12-16T21:35:19.907Z,2.90
2017-12-16T21:37:49.251Z,2.90
2017-12-16T21:40:17.830Z,2.80
2017-12-16T21:42:46.443Z,2.90
2017-12-16T21:45:14.996Z,2.80
2017-12-16T21:47:43.534Z,2.80
2017-12-16T21:50:12.141Z,2.80
2017-12-16T21:52:41.480Z,2.80
2017-12-16T21:55:10.045Z,2.80
2017-12-16T21:57:38.851Z,2.80
2017-12-16T22:00:07.434Z,2.80
2017-12-16T22:02:36.005Z,2.80
2017-12-16T22:05:04.665Z,2.80
2017-12-16T22:07:33.220Z,2.80
2017-12-16T22:10:01.801Z,2.80
2017-12-16T22:12:30.530Z,2.80
2017-12-16T22:14:59.139Z,2.80
2017-12-16T22:17:28.471Z,2.80
2017-12-16T22:19:57.096Z,2.70
2017-12-16T22:22:25.649Z,2.70
2017-12-16T22:24:54.221Z,2.70
2017-12-16T22:27:22.826Z,2.70
2017-12-16T22:29:51.381Z,2.70
2017-12-16T22:32:19.973Z,2.70
2017-12-16T22:34:48.572Z,2.70
2017-12-16T22:37:17.110Z,2.60
2017-12-16T22:39:45.716Z,2.60
2017-12-16T22:42:14.770Z,2.60
2017-12-16T22:44:43.363Z,2.60
2017-12-16T22:47:11.966Z,2.50
2017-12-16T22:49:40.579Z,2.50
2017-12-16T22:52:09.176Z,2.40
2017-12-16T22:54:37.497Z,2.40
2017-12-16T22:57:05.803Z,2.40
2017-12-16T22:59:35.286Z,2.40
2017-12-16T23:02:03.855Z,2.40
2017-12-16T23:04:32.487Z,2.40
2017-12-16T23:07:01.542Z,2.50
2017-12-16T23:09:29.509Z,2.40
2017-12-16T23:11:57.482Z,2.50
2017-12-16T23:14:25.724Z,2.50
2017-12-16T23:16:54.442Z,2.50
2017-12-16T23:19:22.470Z,2.50
2017-12-16T23:21:51.499Z,2.60
2017-12-16T23:24:20.452Z,2.60
2017-12-16T23:26:49.118Z,2.60
2017-12-16T23:29:17.554Z,2.60
2017-12-16T23:31:45.846Z,2.60
2017-12-16T23:34:14.162Z,2.60
2017-12-16T23:36:42.146Z,2.60
2017-12-16T23:39:10.407Z,2.60
2017-12-16T23:41:38.734Z,2.60
2017-12-16T23:44:08.137Z,2.60
2017-12-16T23:46:37.204Z,2.60
2017-12-16T23:49:05.861Z,2.60
2017-12-16T23:51:34.591Z,2.60
2017-12-16T23:54:02.876Z,2.60
2017-12-16T23:56:31.653Z,2.60
2017-12-16T23:58:59.629Z,2.60
